createdAt,value
2019-06-08T00:00:27.144Z,14.51
2019-06-08T00:03:27.147Z,14.55
2019-06-08T00:04:27.130Z,14.55
2019-06-08T00:05:27.134Z,14.55
2019-06-08T00:06:27.141Z,14.52
2019-06-08T00:09:27.198Z,14.49
2019-06-08T00:10:27.187Z,14.43
2019-06-08T00:11:27.155Z,14.46
2019-06-08T00:12:27.150Z,14.40
2019-06-08T00:15:27.162Z,14.31
2019-06-08T00:16:27.164Z,14.33
2019-06-08T00:17:34.325Z,14.16
2019-06-08T00:18:27.176Z,14.25
2019-06-08T00:21:27.153Z,14.18
2019-06-08T00:22:27.149Z,14.22
2019-06-08T00:23:27.154Z,14.17
2019-06-08T00:24:27.163Z,14.17
2019-06-08T00:27:27.184Z,14.08
2019-06-08T00:28:27.179Z,14.11
2019-06-08T00:29:27.176Z,14.16
2019-06-08T00:30:27.149Z,13.85
2019-06-08T00:33:27.168Z,13.99
2019-06-08T00:34:27.175Z,14.01
2019-06-08T00:35:27.206Z,14.02
2019-06-08T00:36:27.177Z,13.93
2019-06-08T00:39:27.173Z,13.89
2019-06-08T00:40:27.186Z,13.84
2019-06-08T00:41:27.195Z,13.80
2019-06-08T00:42:27.273Z,13.87
2019-06-08T00:45:27.241Z,13.81
2019-06-08T00:46:27.186Z,13.91
2019-06-08T00:47:42.044Z,13.93
2019-06-08T00:48:27.176Z,13.99
2019-06-08T00:51:27.185Z,13.95
2019-06-08T00:52:27.184Z,14.01
2019-06-08T00:53:27.193Z,13.99
2019-06-08T00:54:27.254Z,13.93
2019-06-08T00:57:27.254Z,13.88
2019-06-08T00:58:27.200Z,13.89
2019-06-08T00:59:27.211Z,13.74
2019-06-08T01:00:27.252Z,13.84
2019-06-08T01:03:27.216Z,13.69
2019-06-08T01:04:27.299Z,13.63
2019-06-08T01:05:27.188Z,13.73
2019-06-08T01:06:27.583Z,13.79
2019-06-08T01:09:27.255Z,13.37
2019-06-08T01:10:27.580Z,13.52
2019-06-08T01:11:27.201Z,13.46
2019-06-08T01:12:27.225Z,13.45
2019-06-08T01:15:31.072Z,13.70
2019-06-08T01:16:27.243Z,13.77
2019-06-08T01:17:27.589Z,13.73
2019-06-08T01:18:27.502Z,13.80
2019-06-08T01:21:27.718Z,13.74
2019-06-08T01:22:27.747Z,13.73
2019-06-08T01:23:27.905Z,13.75
2019-06-08T01:24:27.981Z,13.72
2019-06-08T01:27:28.196Z,13.55
2019-06-08T01:28:28.229Z,13.55
2019-06-08T01:29:28.344Z,13.58
2019-06-08T01:30:28.417Z,13.65
2019-06-08T01:33:28.705Z,13.61
2019-06-08T01:34:27.244Z,13.66
2019-06-08T01:35:27.218Z,13.63
2019-06-08T01:36:27.580Z,13.68
2019-06-08T01:39:27.314Z,13.50
2019-06-08T01:40:27.515Z,13.47
2019-06-08T01:41:27.758Z,13.54
2019-06-08T01:42:27.677Z,13.52
2019-06-08T01:45:27.910Z,13.58
2019-06-08T01:46:28.244Z,13.57
2019-06-08T01:47:28.261Z,13.59
2019-06-08T01:48:28.197Z,13.54
2019-06-08T01:51:28.504Z,13.46
2019-06-08T01:52:27.235Z,13.53
2019-06-08T01:53:27.283Z,13.51
2019-06-08T01:54:27.252Z,13.53
2019-06-08T01:57:27.274Z,13.23
2019-06-08T01:58:27.461Z,13.24
2019-06-08T01:59:27.429Z,13.19
2019-06-08T02:00:31.679Z,13.08
2019-06-08T02:03:28.133Z,13.21
2019-06-08T02:04:28.080Z,13.28
2019-06-08T02:05:28.207Z,13.30
2019-06-08T02:06:28.427Z,13.29
2019-06-08T02:09:28.591Z,13.43
2019-06-08T02:10:28.681Z,13.41
2019-06-08T02:11:28.688Z,13.45
2019-06-08T02:12:28.782Z,13.44
2019-06-08T02:15:27.302Z,13.25
2019-06-08T02:16:27.399Z,13.32
2019-06-08T02:17:27.394Z,13.32
2019-06-08T02:18:39.826Z,13.34
2019-06-08T02:20:28.625Z,13.30
2019-06-08T02:21:28.756Z,13.27
2019-06-08T02:22:27.266Z,13.10
2019-06-08T02:23:27.297Z,13.23
2019-06-08T02:26:28.691Z,13.32
2019-06-08T02:27:27.306Z,13.43
2019-06-08T02:28:27.462Z,13.41
2019-06-08T02:29:27.476Z,13.44
2019-06-08T02:32:28.535Z,13.35
2019-06-08T02:33:28.252Z,13.39
2019-06-08T02:34:28.342Z,13.38
2019-06-08T02:35:27.953Z,13.37
2019-06-08T02:38:27.556Z,13.31
2019-06-08T02:39:28.401Z,13.31
2019-06-08T02:40:27.509Z,13.33
2019-06-08T02:41:28.854Z,13.33
2019-06-08T02:44:28.243Z,13.29
2019-06-08T02:45:29.427Z,13.31
2019-06-08T02:46:28.839Z,13.37
2019-06-08T02:47:28.465Z,13.32
2019-06-08T02:50:28.483Z,13.30
2019-06-08T02:51:28.748Z,13.25
2019-06-08T02:52:27.282Z,13.38
2019-06-08T02:53:29.223Z,13.40
2019-06-08T02:56:27.290Z,13.46
2019-06-08T02:57:29.042Z,13.50
2019-06-08T02:58:29.094Z,13.46
2019-06-08T02:59:29.067Z,13.45
2019-06-08T03:02:27.302Z,13.54
2019-06-08T03:03:27.321Z,13.57
2019-06-08T03:04:27.324Z,13.59
2019-06-08T03:05:27.304Z,13.53
2019-06-08T03:08:27.298Z,13.59
2019-06-08T03:09:27.361Z,13.62
2019-06-08T03:10:27.314Z,13.60
2019-06-08T03:11:27.304Z,13.57
2019-06-08T03:14:27.284Z,13.66
2019-06-08T03:15:27.306Z,13.66
2019-06-08T03:16:27.310Z,13.69
2019-06-08T03:17:27.309Z,13.74
2019-06-08T03:20:27.369Z,13.85
2019-06-08T03:21:27.325Z,13.94
2019-06-08T03:22:27.318Z,13.93
2019-06-08T03:23:27.361Z,13.93
2019-06-08T03:26:27.345Z,14.01
2019-06-08T03:27:27.325Z,14.02
2019-06-08T03:28:27.327Z,14.04
2019-06-08T03:29:27.315Z,14.06
2019-06-08T03:32:27.346Z,14.08
2019-06-08T03:33:27.390Z,14.02
2019-06-08T03:34:27.342Z,14.00
2019-06-08T03:35:27.365Z,14.03
2019-06-08T03:38:27.350Z,14.07
2019-06-08T03:39:27.330Z,14.10
2019-06-08T03:40:27.328Z,14.14
2019-06-08T03:41:27.379Z,14.17
2019-06-08T03:44:27.341Z,14.26
2019-06-08T03:45:27.395Z,14.22
2019-06-08T03:46:27.411Z,14.32
2019-06-08T03:47:27.356Z,14.42
2019-06-08T03:50:27.319Z,14.30
2019-06-08T03:51:27.373Z,14.14
2019-06-08T03:52:27.332Z,14.27
2019-06-08T03:53:27.402Z,14.37
2019-06-08T03:56:27.399Z,14.36
2019-06-08T03:57:27.367Z,14.47
2019-06-08T03:58:27.349Z,14.55
2019-06-08T03:59:27.368Z,14.65
2019-06-08T04:02:27.394Z,14.71
2019-06-08T04:03:27.356Z,14.69
2019-06-08T04:04:27.360Z,14.67
2019-06-08T04:05:27.366Z,14.89
2019-06-08T04:08:27.380Z,15.03
2019-06-08T04:09:27.357Z,15.26
2019-06-08T04:10:27.364Z,15.24
2019-06-08T04:11:27.402Z,15.28
2019-06-08T04:14:27.371Z,15.32
2019-06-08T04:15:27.452Z,15.22
2019-06-08T04:16:27.382Z,15.21
2019-06-08T04:17:27.408Z,15.20
2019-06-08T04:20:27.385Z,15.19
2019-06-08T04:21:27.371Z,15.15
2019-06-08T04:22:27.369Z,15.23
2019-06-08T04:23:27.387Z,15.29
2019-06-08T04:26:27.378Z,15.33
2019-06-08T04:27:27.392Z,15.48
2019-06-08T04:28:27.376Z,15.68
2019-06-08T04:29:27.385Z,15.78
2019-06-08T04:32:27.409Z,15.93
2019-06-08T04:33:27.388Z,15.97
2019-06-08T04:34:27.387Z,16.12
2019-06-08T04:35:27.382Z,16.10
2019-06-08T04:38:27.381Z,16.57
2019-06-08T04:39:27.401Z,16.80
2019-06-08T04:40:27.388Z,17.03
2019-06-08T04:41:27.391Z,17.25
2019-06-08T04:44:27.392Z,17.77
2019-06-08T04:45:27.423Z,17.60
2019-06-08T04:46:27.391Z,17.44
2019-06-08T04:47:27.378Z,17.33
2019-06-08T04:50:27.421Z,17.71
2019-06-08T04:51:27.394Z,17.72
2019-06-08T04:52:27.392Z,17.71
2019-06-08T04:53:27.452Z,18.10
2019-06-08T04:56:27.376Z,17.79
2019-06-08T04:57:27.393Z,17.54
2019-06-08T04:58:27.400Z,17.31
2019-06-08T04:59:27.405Z,17.39
2019-06-08T05:02:27.414Z,17.73
2019-06-08T05:03:27.438Z,17.92
2019-06-08T05:04:27.390Z,18.31
2019-06-08T05:05:27.443Z,18.79
2019-06-08T05:08:27.440Z,19.45
2019-06-08T05:09:27.446Z,19.95
2019-06-08T05:10:27.412Z,20.17
2019-06-08T05:11:27.450Z,20.61
2019-06-08T05:14:27.406Z,20.72
2019-06-08T05:15:30.443Z,21.51
2019-06-08T05:16:30.418Z,21.01
2019-06-08T05:17:30.483Z,20.81
2019-06-08T05:19:30.476Z,21.00
2019-06-08T05:20:39.101Z,21.09
2019-06-08T05:21:30.430Z,21.50
2019-06-08T05:22:30.435Z,21.57
2019-06-08T05:25:30.428Z,21.95
2019-06-08T05:26:30.467Z,22.09
2019-06-08T05:27:30.446Z,22.42
2019-06-08T05:28:30.438Z,21.80
2019-06-08T05:31:30.446Z,21.92
2019-06-08T05:32:30.435Z,21.29
2019-06-08T05:33:30.453Z,21.86
2019-06-08T05:34:30.429Z,22.50
2019-06-08T05:37:30.438Z,22.22
2019-06-08T05:38:30.481Z,22.60
2019-06-08T05:39:30.449Z,23.06
2019-06-08T05:40:30.465Z,23.53
2019-06-08T05:43:30.440Z,23.20
2019-06-08T05:44:30.463Z,23.30
2019-06-08T05:45:30.457Z,22.19
2019-06-08T05:46:30.444Z,21.82
2019-06-08T05:49:30.499Z,21.44
2019-06-08T05:50:30.512Z,21.99
2019-06-08T05:51:30.447Z,23.07
2019-06-08T05:52:30.456Z,22.50
2019-06-08T05:55:30.458Z,22.29
2019-06-08T05:56:30.463Z,21.92
2019-06-08T05:57:30.473Z,21.75
2019-06-08T05:58:30.465Z,22.17
2019-06-08T06:01:30.484Z,22.51
2019-06-08T06:02:30.467Z,22.35
2019-06-08T06:03:30.491Z,23.27
2019-06-08T06:04:30.449Z,23.66
2019-06-08T06:07:30.489Z,23.66
2019-06-08T06:08:30.489Z,24.48
2019-06-08T06:09:30.467Z,24.93
2019-06-08T06:10:30.504Z,23.89
2019-06-08T06:13:30.480Z,25.11
2019-06-08T06:14:30.478Z,24.62
2019-06-08T06:15:30.484Z,24.27
2019-06-08T06:16:30.488Z,24.63
2019-06-08T06:19:30.486Z,24.36
2019-06-08T06:20:30.470Z,23.27
2019-06-08T06:21:30.481Z,23.40
2019-06-08T06:22:30.494Z,24.61
2019-06-08T06:25:30.499Z,26.45
2019-06-08T06:26:30.480Z,24.83
2019-06-08T06:27:30.522Z,24.13
2019-06-08T06:28:30.497Z,24.96
2019-06-08T06:31:30.476Z,25.99
2019-06-08T06:32:30.501Z,25.20
2019-06-08T06:33:30.498Z,25.37
2019-06-08T06:34:30.507Z,26.00
2019-06-08T06:37:30.494Z,26.91
2019-06-08T06:38:30.547Z,26.98
2019-06-08T06:39:30.539Z,24.79
2019-06-08T06:40:30.514Z,24.61
2019-06-08T06:43:30.479Z,26.67
2019-06-08T06:44:30.531Z,24.58
2019-06-08T06:45:30.499Z,25.02
2019-06-08T06:46:30.508Z,26.10
2019-06-08T06:49:30.519Z,25.01
2019-06-08T06:50:30.554Z,25.67
2019-06-08T06:51:30.534Z,25.02
2019-06-08T06:52:30.500Z,24.09
2019-06-08T06:55:30.511Z,24.87
2019-06-08T06:56:30.520Z,25.34
2019-06-08T06:57:30.524Z,25.92
2019-06-08T06:58:30.510Z,24.68
2019-06-08T07:01:30.521Z,26.33
2019-06-08T07:02:30.533Z,24.72
2019-06-08T07:03:30.539Z,25.93
2019-06-08T07:04:30.509Z,26.34
2019-06-08T07:07:30.519Z,27.45
2019-06-08T07:08:30.571Z,27.76
2019-06-08T07:09:30.546Z,27.48
2019-06-08T07:10:30.516Z,26.59
2019-06-08T07:13:30.533Z,25.68
2019-06-08T07:14:30.557Z,26.87
2019-06-08T07:15:30.545Z,26.97
2019-06-08T07:16:30.524Z,26.76
2019-06-08T07:19:30.531Z,27.63
2019-06-08T07:20:30.579Z,26.48
2019-06-08T07:21:41.371Z,26.17
2019-06-08T07:22:30.561Z,26.58
2019-06-08T07:25:30.548Z,26.40
2019-06-08T07:26:30.550Z,27.52
2019-06-08T07:27:30.557Z,27.80
2019-06-08T07:28:30.531Z,27.97
2019-06-08T07:31:30.538Z,28.56
2019-06-08T07:32:30.557Z,27.30
2019-06-08T07:33:30.571Z,27.31
2019-06-08T07:34:30.551Z,27.28
2019-06-08T07:37:30.584Z,26.63
2019-06-08T07:38:30.569Z,27.25
2019-06-08T07:39:30.592Z,26.19
2019-06-08T07:40:30.551Z,27.10
2019-06-08T07:43:30.573Z,28.50
2019-06-08T07:44:30.590Z,28.61
2019-06-08T07:45:30.597Z,29.38
2019-06-08T07:46:30.564Z,29.70
2019-06-08T07:49:30.562Z,28.11
2019-06-08T07:50:30.567Z,26.43
2019-06-08T07:51:30.580Z,26.81
2019-06-08T07:52:30.568Z,27.45
2019-06-08T07:55:30.572Z,27.68
2019-06-08T07:56:30.591Z,27.45
2019-06-08T07:57:30.585Z,28.66
2019-06-08T07:58:30.563Z,28.49
2019-06-08T08:01:36.214Z,29.73
2019-06-08T08:02:30.613Z,30.54
2019-06-08T08:03:30.599Z,30.71
2019-06-08T08:04:30.605Z,29.16
2019-06-08T08:07:30.590Z,27.34
2019-06-08T08:08:30.602Z,27.45
2019-06-08T08:09:30.646Z,28.88
2019-06-08T08:10:30.583Z,29.64
2019-06-08T08:13:30.583Z,30.79
2019-06-08T08:14:30.606Z,30.45
2019-06-08T08:15:30.592Z,28.78
2019-06-08T08:16:30.609Z,29.85
2019-06-08T08:19:30.599Z,30.22
2019-06-08T08:20:30.625Z,29.75
2019-06-08T08:21:30.613Z,30.16
2019-06-08T08:22:30.644Z,28.75
2019-06-08T08:25:30.604Z,28.40
2019-06-08T08:26:34.275Z,28.54
2019-06-08T08:27:30.611Z,28.40
2019-06-08T08:28:30.598Z,29.07
2019-06-08T08:31:30.611Z,28.36
2019-06-08T08:32:30.613Z,28.09
2019-06-08T08:33:30.620Z,28.84
2019-06-08T08:34:30.615Z,29.85
2019-06-08T08:37:30.607Z,29.26
2019-06-08T08:38:30.615Z,30.03
2019-06-08T08:39:30.674Z,29.68
2019-06-08T08:40:30.652Z,28.07
2019-06-08T08:43:30.639Z,26.26
2019-06-08T08:44:30.639Z,26.89
2019-06-08T08:45:30.624Z,27.20
2019-06-08T08:46:30.616Z,27.15
2019-06-08T08:49:30.639Z,27.29
2019-06-08T08:50:30.614Z,27.21
2019-06-08T08:51:30.635Z,27.75
2019-06-08T08:52:36.420Z,27.62
2019-06-08T08:55:30.649Z,28.34
2019-06-08T08:56:30.658Z,29.02
2019-06-08T08:57:30.655Z,29.72
2019-06-08T08:58:30.654Z,30.03
2019-06-08T09:01:30.630Z,27.70
2019-06-08T09:02:30.669Z,28.09
2019-06-08T09:03:33.571Z,27.77
2019-06-08T09:04:30.648Z,27.49
2019-06-08T09:07:30.641Z,28.15
2019-06-08T09:08:30.658Z,27.94
2019-06-08T09:09:30.659Z,28.08
2019-06-08T09:10:30.661Z,28.49
2019-06-08T09:13:30.666Z,28.55
2019-06-08T09:14:30.661Z,27.89
2019-06-08T09:15:31.489Z,28.17
2019-06-08T09:16:30.664Z,27.53
2019-06-08T09:19:30.710Z,29.70
2019-06-08T09:20:30.685Z,29.58
2019-06-08T09:21:30.684Z,28.64
2019-06-08T09:22:31.263Z,29.11
2019-06-08T09:25:30.863Z,28.41
2019-06-08T09:26:31.404Z,29.09
2019-06-08T09:27:30.757Z,28.21
2019-06-08T09:28:30.666Z,28.86
2019-06-08T09:31:31.058Z,27.66
2019-06-08T09:32:30.721Z,28.02
2019-06-08T09:33:30.701Z,27.93
2019-06-08T09:34:30.679Z,27.91
2019-06-08T09:37:30.726Z,29.88
2019-06-08T09:38:30.718Z,30.15
2019-06-08T09:39:30.707Z,28.45
2019-06-08T09:40:32.613Z,29.46
2019-06-08T09:43:30.710Z,29.18
2019-06-08T09:44:30.696Z,29.59
2019-06-08T09:45:30.698Z,29.65
2019-06-08T09:46:30.685Z,29.17
2019-06-08T09:49:30.721Z,29.59
2019-06-08T09:50:30.712Z,29.98
2019-06-08T09:51:30.720Z,29.34
2019-06-08T09:52:30.685Z,29.64
2019-06-08T09:55:30.715Z,28.87
2019-06-08T09:56:30.705Z,30.24
2019-06-08T09:57:30.692Z,30.76
2019-06-08T09:58:30.707Z,29.06
2019-06-08T10:01:30.711Z,29.60
2019-06-08T10:02:30.721Z,29.54
2019-06-08T10:03:30.917Z,29.15
2019-06-08T10:04:31.581Z,28.23
2019-06-08T10:07:31.302Z,28.11
2019-06-08T10:08:30.813Z,28.03
2019-06-08T10:09:30.721Z,29.00
2019-06-08T10:10:30.720Z,29.16
2019-06-08T10:13:30.738Z,29.34
2019-06-08T10:14:30.723Z,28.77
2019-06-08T10:15:30.749Z,29.83
2019-06-08T10:16:31.097Z,29.63
2019-06-08T10:19:30.734Z,28.75
2019-06-08T10:20:30.950Z,29.53
2019-06-08T10:21:30.742Z,28.84
2019-06-08T10:22:30.731Z,29.27
2019-06-08T10:25:30.771Z,29.63
2019-06-08T10:26:30.755Z,29.35
2019-06-08T10:27:30.745Z,29.85
2019-06-08T10:28:30.735Z,29.91
2019-06-08T10:31:39.014Z,28.14
2019-06-08T10:32:30.805Z,29.20
2019-06-08T10:33:30.769Z,29.97
2019-06-08T10:34:30.756Z,30.37
2019-06-08T10:37:30.745Z,29.22
2019-06-08T10:38:30.822Z,29.22
2019-06-08T10:39:30.756Z,28.93
2019-06-08T10:40:30.766Z,29.58
2019-06-08T10:43:30.769Z,28.24
2019-06-08T10:44:30.785Z,27.80
2019-06-08T10:45:30.775Z,28.33
2019-06-08T10:46:30.767Z,29.22
2019-06-08T10:49:30.789Z,29.64
2019-06-08T10:50:30.764Z,30.09
2019-06-08T10:51:30.789Z,29.11
2019-06-08T10:52:30.762Z,30.00
2019-06-08T10:55:30.789Z,31.11
2019-06-08T10:56:31.161Z,30.45
2019-06-08T10:57:30.794Z,29.60
2019-06-08T10:58:30.809Z,30.47
2019-06-08T11:01:30.770Z,30.59
2019-06-08T11:02:30.784Z,30.35
2019-06-08T11:03:30.846Z,29.94
2019-06-08T11:04:30.817Z,30.47
2019-06-08T11:07:30.832Z,29.73
2019-06-08T11:08:30.790Z,30.35
2019-06-08T11:09:30.835Z,29.43
2019-06-08T11:10:30.785Z,29.63
2019-06-08T11:13:30.829Z,29.35
2019-06-08T11:14:30.810Z,29.46
2019-06-08T11:15:30.807Z,30.42
2019-06-08T11:16:30.806Z,29.56
2019-06-08T11:19:30.797Z,30.51
2019-06-08T11:20:30.815Z,29.66
2019-06-08T11:21:30.806Z,30.45
2019-06-08T11:22:30.829Z,29.62
2019-06-08T11:25:30.812Z,29.98
2019-06-08T11:26:30.845Z,30.43
2019-06-08T11:27:30.845Z,30.12
2019-06-08T11:28:30.832Z,29.19
2019-06-08T11:31:32.234Z,28.15
2019-06-08T11:32:30.824Z,27.85
2019-06-08T11:33:30.838Z,28.02
2019-06-08T11:34:30.811Z,28.46
2019-06-08T11:37:30.848Z,30.41
2019-06-08T11:38:30.819Z,30.92
2019-06-08T11:39:30.821Z,31.11
2019-06-08T11:40:30.836Z,30.90
2019-06-08T11:43:30.846Z,29.40
2019-06-08T11:44:30.849Z,28.43
2019-06-08T11:45:30.845Z,29.56
2019-06-08T11:46:30.826Z,30.55
2019-06-08T11:49:30.833Z,29.72
2019-06-08T11:50:30.874Z,29.15
2019-06-08T11:51:30.862Z,29.86
2019-06-08T11:52:30.832Z,30.86
2019-06-08T11:55:30.869Z,32.08
2019-06-08T11:56:30.895Z,32.28
2019-06-08T11:57:30.846Z,31.21
2019-06-08T11:58:30.888Z,30.69
2019-06-08T12:01:30.842Z,31.32
2019-06-08T12:02:30.877Z,31.67
2019-06-08T12:03:30.860Z,30.40
2019-06-08T12:04:30.851Z,30.98
2019-06-08T12:07:30.875Z,28.65
2019-06-08T12:08:30.853Z,29.51
2019-06-08T12:09:30.853Z,30.79
2019-06-08T12:10:30.858Z,30.38
2019-06-08T12:13:30.863Z,28.31
2019-06-08T12:14:33.580Z,27.83
2019-06-08T12:15:30.890Z,27.25
2019-06-08T12:16:30.867Z,28.49
2019-06-08T12:19:31.550Z,28.88
2019-06-08T12:20:30.875Z,30.05
2019-06-08T12:21:30.900Z,30.38
2019-06-08T12:22:30.873Z,30.60
2019-06-08T12:25:30.876Z,31.26
2019-06-08T12:26:30.930Z,30.28
2019-06-08T12:27:36.146Z,29.73
2019-06-08T12:28:30.870Z,28.42
2019-06-08T12:31:30.895Z,28.20
2019-06-08T12:32:30.912Z,29.27
2019-06-08T12:33:30.913Z,29.91
2019-06-08T12:34:30.890Z,29.49
2019-06-08T12:37:30.912Z,27.37
2019-06-08T12:38:34.126Z,28.32
2019-06-08T12:39:30.941Z,28.67
2019-06-08T12:40:30.922Z,27.90
2019-06-08T12:43:30.898Z,28.26
2019-06-08T12:44:30.907Z,28.60
2019-06-08T12:45:30.917Z,29.22
2019-06-08T12:46:30.903Z,28.34
2019-06-08T12:49:30.914Z,28.05
2019-06-08T12:50:30.915Z,28.06
2019-06-08T12:51:30.989Z,28.50
2019-06-08T12:52:30.933Z,28.43
2019-06-08T12:55:30.915Z,28.87
2019-06-08T12:56:30.929Z,29.58
2019-06-08T12:57:30.936Z,28.86
2019-06-08T12:58:30.925Z,27.97
2019-06-08T13:00:30.910Z,30.26
2019-06-08T13:01:30.951Z,30.55
2019-06-08T13:02:30.975Z,31.26
2019-06-08T13:03:30.923Z,30.67
2019-06-08T13:06:30.942Z,28.61
2019-06-08T13:07:30.946Z,29.27
2019-06-08T13:08:30.950Z,29.70
2019-06-08T13:09:30.955Z,30.73
2019-06-08T13:12:30.938Z,29.87
2019-06-08T13:13:30.953Z,30.20
2019-06-08T13:14:30.968Z,30.05
2019-06-08T13:15:31.044Z,29.63
2019-06-08T13:18:30.968Z,29.76
2019-06-08T13:19:31.000Z,30.22
2019-06-08T13:20:30.949Z,30.16
2019-06-08T13:21:34.907Z,29.38
2019-06-08T13:24:30.959Z,30.00
2019-06-08T13:25:39.588Z,29.63
2019-06-08T13:26:31.205Z,28.72
2019-06-08T13:27:30.983Z,28.96
2019-06-08T13:30:32.481Z,30.33
2019-06-08T13:31:30.962Z,30.77
2019-06-08T13:32:30.956Z,31.17
2019-06-08T13:33:30.971Z,31.63
2019-06-08T13:36:30.969Z,31.06
2019-06-08T13:37:30.959Z,30.00
2019-06-08T13:38:30.990Z,27.62
2019-06-08T13:39:30.979Z,28.79
2019-06-08T13:42:30.983Z,30.28
2019-06-08T13:43:30.972Z,30.63
2019-06-08T13:44:30.981Z,29.12
2019-06-08T13:45:30.994Z,30.32
2019-06-08T13:48:31.002Z,29.69
2019-06-08T13:49:31.038Z,29.49
2019-06-08T13:50:31.002Z,28.26
2019-06-08T13:51:30.982Z,28.90
2019-06-08T13:54:31.289Z,29.31
2019-06-08T13:55:47.643Z,29.57
2019-06-08T13:56:31.002Z,29.57
2019-06-08T13:57:31.002Z,29.13
2019-06-08T14:00:30.991Z,28.88
2019-06-08T14:01:31.041Z,28.00
2019-06-08T14:02:31.749Z,26.93
2019-06-08T14:03:31.016Z,28.12
2019-06-08T14:06:31.026Z,28.77
2019-06-08T14:07:34.431Z,28.69
2019-06-08T14:08:33.031Z,28.18
2019-06-08T14:09:31.658Z,28.71
2019-06-08T14:12:31.087Z,27.23
2019-06-08T14:13:34.133Z,27.88
2019-06-08T14:14:33.629Z,28.29
2019-06-08T14:15:31.040Z,28.15
2019-06-08T14:18:34.088Z,28.08
2019-06-08T14:19:31.772Z,27.87
2019-06-08T14:20:34.303Z,27.66
2019-06-08T14:21:38.565Z,28.64
2019-06-08T14:24:34.485Z,29.89
2019-06-08T14:25:46.624Z,29.66
2019-06-08T14:26:31.034Z,28.61
2019-06-08T14:27:33.248Z,28.65
2019-06-08T14:30:33.102Z,27.97
2019-06-08T14:31:32.152Z,28.90
2019-06-08T14:32:31.025Z,28.77
2019-06-08T14:33:32.107Z,29.43
2019-06-08T14:36:31.071Z,29.13
2019-06-08T14:37:31.056Z,29.58
2019-06-08T14:38:38.271Z,29.76
2019-06-08T14:39:31.828Z,29.56
2019-06-08T14:42:31.830Z,27.92
2019-06-08T14:43:31.388Z,27.81
2019-06-08T14:44:32.178Z,27.75
2019-06-08T14:45:31.259Z,28.25
2019-06-08T14:48:33.489Z,28.77
2019-06-08T14:49:34.983Z,28.68
2019-06-08T14:50:31.280Z,28.89
2019-06-08T14:51:31.109Z,28.56
2019-06-08T14:54:34.701Z,28.34
2019-06-08T14:55:34.101Z,28.92
2019-06-08T14:56:31.762Z,27.59
2019-06-08T14:57:31.096Z,28.90
2019-06-08T15:00:31.098Z,29.52
2019-06-08T15:01:31.485Z,29.33
2019-06-08T15:02:31.438Z,29.35
2019-06-08T15:03:31.093Z,28.34
2019-06-08T15:06:33.917Z,29.13
2019-06-08T15:07:32.692Z,28.12
2019-06-08T15:08:31.220Z,28.92
2019-06-08T15:09:31.087Z,29.38
2019-06-08T15:12:31.494Z,28.61
2019-06-08T15:13:31.273Z,29.29
2019-06-08T15:14:35.059Z,29.07
2019-06-08T15:15:32.259Z,29.31
2019-06-08T15:18:31.839Z,29.29
2019-06-08T15:19:32.559Z,29.31
2019-06-08T15:20:31.128Z,28.78
2019-06-08T15:21:33.012Z,29.31
2019-06-08T15:24:32.731Z,29.76
2019-06-08T15:25:32.771Z,29.11
2019-06-08T15:26:39.887Z,28.15
2019-06-08T15:27:33.314Z,27.40
2019-06-08T15:30:32.743Z,27.29
2019-06-08T15:31:31.628Z,27.17
2019-06-08T15:32:33.723Z,27.37
2019-06-08T15:33:33.669Z,28.00
2019-06-08T15:36:32.471Z,28.25
2019-06-08T15:37:32.216Z,28.82
2019-06-08T15:38:32.413Z,28.03
2019-06-08T15:39:33.685Z,27.37
2019-06-08T15:42:32.429Z,28.26
2019-06-08T15:43:34.445Z,28.36
2019-06-08T15:44:32.026Z,28.41
2019-06-08T15:45:32.919Z,28.43
2019-06-08T15:48:32.380Z,28.73
2019-06-08T15:49:32.324Z,28.40
2019-06-08T15:50:31.120Z,28.82
2019-06-08T15:51:35.534Z,28.44
2019-06-08T15:54:36.229Z,28.12
2019-06-08T15:55:32.972Z,27.67
2019-06-08T15:56:41.758Z,28.06
2019-06-08T15:57:35.655Z,28.14
2019-06-08T16:00:32.831Z,26.94
2019-06-08T16:01:31.521Z,27.46
2019-06-08T16:02:31.723Z,27.45
2019-06-08T16:03:31.435Z,27.33
2019-06-08T16:06:31.797Z,27.12
2019-06-08T16:07:32.750Z,26.80
2019-06-08T16:08:32.275Z,27.29
2019-06-08T16:09:32.117Z,27.99
2019-06-08T16:12:33.055Z,27.29
2019-06-08T16:13:31.162Z,27.03
2019-06-08T16:14:31.180Z,27.01
2019-06-08T16:15:31.174Z,26.32
2019-06-08T16:18:31.735Z,26.87
2019-06-08T16:19:31.593Z,26.55
2019-06-08T16:20:31.585Z,26.76
2019-06-08T16:21:31.757Z,27.59
2019-06-08T16:24:31.879Z,27.66
2019-06-08T16:25:35.209Z,27.46
2019-06-08T16:26:31.736Z,27.66
2019-06-08T16:27:32.098Z,28.03
2019-06-08T16:30:31.229Z,27.99
2019-06-08T16:31:31.181Z,28.18
2019-06-08T16:32:31.564Z,28.46
2019-06-08T16:33:31.229Z,28.85
2019-06-08T16:36:31.488Z,26.93
2019-06-08T16:37:31.597Z,26.86
2019-06-08T16:38:32.353Z,26.78
2019-06-08T16:39:31.248Z,26.85
2019-06-08T16:42:32.383Z,27.24
2019-06-08T16:43:31.192Z,27.08
2019-06-08T16:44:32.248Z,27.13
2019-06-08T16:45:31.219Z,27.59
2019-06-08T16:48:32.321Z,27.55
2019-06-08T16:49:31.253Z,27.81
2019-06-08T16:50:32.251Z,27.84
2019-06-08T16:51:31.462Z,27.36
2019-06-08T16:54:31.255Z,26.73
2019-06-08T16:55:32.070Z,27.04
2019-06-08T16:56:31.977Z,26.92
2019-06-08T16:57:31.236Z,26.28
2019-06-08T17:00:34.574Z,26.35
2019-06-08T17:01:32.718Z,26.59
2019-06-08T17:02:32.641Z,26.62
2019-06-08T17:03:31.232Z,26.63
2019-06-08T17:06:31.275Z,26.32
2019-06-08T17:07:32.197Z,26.27
2019-06-08T17:08:35.312Z,26.26
2019-06-08T17:09:32.528Z,26.31
2019-06-08T17:12:31.240Z,26.17
2019-06-08T17:13:31.928Z,25.66
2019-06-08T17:14:32.002Z,25.37
2019-06-08T17:15:31.974Z,25.04
2019-06-08T17:18:32.204Z,25.11
2019-06-08T17:19:32.043Z,24.51
2019-06-08T17:20:32.086Z,24.54
2019-06-08T17:21:32.197Z,24.71
2019-06-08T17:24:32.498Z,24.38
2019-06-08T17:25:32.293Z,23.52
2019-06-08T17:26:32.538Z,23.94
2019-06-08T17:27:32.523Z,24.19
2019-06-08T17:30:31.258Z,23.93
2019-06-08T17:31:31.241Z,24.04
2019-06-08T17:32:31.408Z,24.18
2019-06-08T17:33:31.245Z,24.10
2019-06-08T17:36:31.955Z,24.20
2019-06-08T17:37:31.692Z,24.38
2019-06-08T17:38:31.810Z,24.37
2019-06-08T17:39:31.730Z,24.12
2019-06-08T17:42:32.093Z,24.48
2019-06-08T17:43:32.080Z,24.33
2019-06-08T17:44:32.187Z,24.43
2019-06-08T17:45:32.340Z,24.44
2019-06-08T17:48:32.451Z,23.93
2019-06-08T17:49:32.404Z,23.07
2019-06-08T17:50:32.558Z,23.46
2019-06-08T17:51:32.714Z,22.80
2019-06-08T17:54:32.593Z,23.68
2019-06-08T17:55:31.275Z,23.88
2019-06-08T17:56:31.294Z,23.94
2019-06-08T17:57:42.462Z,23.98
2019-06-08T18:00:31.294Z,22.83
2019-06-08T18:01:31.315Z,23.24
2019-06-08T18:02:31.827Z,23.50
2019-06-08T18:03:31.291Z,23.15
2019-06-08T18:06:31.302Z,23.41
2019-06-08T18:07:31.284Z,23.43
2019-06-08T18:08:31.300Z,23.45
2019-06-08T18:09:31.296Z,23.28
2019-06-08T18:12:31.327Z,22.21
2019-06-08T18:13:31.293Z,22.48
2019-06-08T18:14:31.329Z,22.59
2019-06-08T18:15:31.308Z,22.05
2019-06-08T18:18:31.315Z,22.02
2019-06-08T18:19:31.306Z,22.10
2019-06-08T18:20:31.310Z,22.19
2019-06-08T18:21:31.311Z,21.82
2019-06-08T18:24:31.304Z,21.52
2019-06-08T18:25:31.302Z,21.22
2019-06-08T18:26:31.314Z,21.16
2019-06-08T18:27:31.320Z,21.36
2019-06-08T18:30:31.320Z,20.64
2019-06-08T18:31:31.322Z,20.81
2019-06-08T18:32:31.333Z,20.97
2019-06-08T18:33:31.341Z,20.77
2019-06-08T18:36:31.344Z,20.47
2019-06-08T18:37:31.335Z,20.64
2019-06-08T18:38:31.354Z,20.77
2019-06-08T18:39:31.329Z,20.82
2019-06-08T18:42:31.331Z,20.88
2019-06-08T18:43:31.332Z,20.42
2019-06-08T18:44:31.373Z,20.37
2019-06-08T18:45:31.336Z,20.55
2019-06-08T18:48:31.363Z,20.58
2019-06-08T18:49:31.329Z,20.54
2019-06-08T18:50:31.347Z,20.39
2019-06-08T18:51:31.342Z,20.43
2019-06-08T18:54:31.362Z,19.89
2019-06-08T18:55:31.342Z,19.72
2019-06-08T18:56:31.348Z,19.89
2019-06-08T18:57:31.356Z,19.97
2019-06-08T19:00:31.364Z,19.96
2019-06-08T19:01:31.391Z,19.94
2019-06-08T19:02:31.366Z,19.93
2019-06-08T19:03:31.383Z,19.76
2019-06-08T19:06:31.392Z,19.81
2019-06-08T19:07:31.370Z,19.62
2019-06-08T19:08:31.378Z,19.67
2019-06-08T19:09:31.401Z,19.67
2019-06-08T19:12:31.369Z,19.49
2019-06-08T19:13:31.360Z,19.54
2019-06-08T19:14:31.370Z,19.41
2019-06-08T19:15:31.385Z,19.33